Airport View

Enter AWOS ICAO identifier for current METAR.

ex. KFNL

KEBS 300335Z AUTO 00000KT 10SM SCT060 BKN070 OVC080 M00/M02 A3015 RMK AO2

30 Oct 2020 03:52

Frequency: 127.825

Phone: 515-832-2794

Other Area AWOS: KFOD - KCAV - KBNW - KIFA

TAF AMD KFOD 300030Z 3001/3024 VRB03KT P6SM SCT100 FM300300 VRB03KT P6SM BKN070 FM301500 12006KT P6SM FEW070